Time;durP1;ratioP1;P1;durP2;ratioP2;P2;SDS_P1;SDS_P2;PMS_P1;PMS_P2;Temp;Humidity;BMP_temperature;BMP_pressure;BME280_temperature;BME280_humidity;BME280_pressure;Samples;Min_cycle;Max_cycle;Signal;HPM_P1;HPM_P2
2023/03/28 00:01:12;;;;;;;8.63;3.27;;;;;;;5.52;76.51;100462.13;1891045;76;21139;-44
2023/03/28 00:03:41;;;;;;;9.13;3.55;;;;;;;5.49;76.52;100464.80;1891274;76;21140;-44
2023/03/28 00:06:15;;;;;;;7.33;3.25;;;;;;;5.49;76.50;100460.89;1891185;76;21116;-44
2023/03/28 00:08:44;;;;;;;6.05;3.17;;;;;;;5.48;76.55;100452.62;1888614;76;21046;-44
2023/03/28 00:11:18;;;;;;;6.62;3.40;;;;;;;5.48;76.72;100447.40;1891255;76;21023;-44
2023/03/28 00:13:52;;;;;;;8.85;4.03;;;;;;;5.46;76.72;100447.46;1891248;76;21046;-45
2023/03/28 00:16:20;;;;;;;16.13;4.00;;;;;;;5.41;76.91;100449.31;1891342;74;21470;-45
2023/03/28 00:18:49;;;;;;;7.30;3.52;;;;;;;5.37;76.88;100451.13;1888404;76;21030;-45
2023/03/28 00:21:24;;;;;;;8.63;3.98;;;;;;;5.31;77.04;100439.53;1891118;76;21508;-45
2023/03/28 00:24:01;;;;;;;11.83;3.85;;;;;;;5.29;77.16;100440.44;1891153;76;21062;-46
2023/03/28 00:26:33;;;;;;;6.45;3.62;;;;;;;5.23;77.30;100434.91;1891073;76;21051;-46
2023/03/28 00:29:04;;;;;;;8.18;3.72;;;;;;;5.19;77.33;100438.03;1888380;76;21026;-44
2023/03/28 00:31:33;;;;;;;4.12;3.00;;;;;;;5.17;77.14;100432.44;1890821;76;21022;-44
2023/03/28 00:34:02;;;;;;;6.33;4.20;;;;;;;5.16;77.13;100428.09;1893155;76;21528;-44
2023/03/28 00:36:31;;;;;;;7.22;3.12;;;;;;;5.15;77.36;100423.33;1883941;76;21065;-47
2023/03/28 00:39:04;;;;;;;7.12;2.67;;;;;;;5.17;77.56;100423.30;1862154;77;21172;-46
2023/03/28 00:41:35;;;;;;;8.45;3.72;;;;;;;5.20;77.62;100423.22;1862030;77;21058;-45
2023/03/28 00:44:09;;;;;;;7.90;3.30;;;;;;;5.21;77.44;100413.20;1862139;77;21042;-46
2023/03/28 00:46:39;;;;;;;6.83;3.62;;;;;;;5.22;77.29;100421.45;1851896;76;21047;-45
2023/03/28 00:49:24;;;;;;;7.53;3.60;;;;;;;5.20;77.17;100412.77;1861456;76;21124;-48
2023/03/28 00:51:52;;;;;;;12.00;5.35;;;;;;;5.16;77.15;100413.74;1861171;77;21030;-45
2023/03/28 00:54:22;;;;;;;14.75;5.58;;;;;;;5.13;77.15;100412.52;1862090;77;21051;-46
2023/03/28 00:56:54;;;;;;;10.18;4.00;;;;;;;5.10;77.28;100406.05;1863805;76;21131;-45
2023/03/28 00:59:26;;;;;;;12.25;3.20;;;;;;;5.06;77.51;100393.97;1862403;77;21124;-46
2023/03/28 01:01:55;;;;;;;10.08;2.65;;;;;;;5.06;77.56;100397.44;1862568;77;21601;-46
2023/03/28 01:04:27;;;;;;;7.97;3.92;;;;;;;5.08;77.66;100393.48;1862576;77;21497;-46
2023/03/28 01:06:57;;;;;;;13.22;5.12;;;;;;;5.09;77.69;100389.97;1862158;77;21074;-46
2023/03/28 01:09:27;;;;;;;13.62;4.85;;;;;;;5.11;77.63;100385.57;1888193;76;21030;-47
2023/03/28 01:11:58;;;;;;;9.75;4.70;;;;;;;5.09;77.50;100387.36;1894204;76;21132;-47
2023/03/28 01:14:29;;;;;;;9.35;3.75;;;;;;;5.03;77.53;100380.11;1894287;76;21160;-45
2023/03/28 01:16:59;;;;;;;7.60;3.37;;;;;;;4.99;77.39;100380.19;1894282;76;21057;-45
2023/03/28 01:19:57;;;;;;;12.90;5.12;;;;;;;4.92;77.31;100371.63;1891888;76;21509;-46
2023/03/28 01:22:35;;;;;;;5.67;3.35;;;;;;;4.87;77.29;100363.06;1846034;76;21548;-47
2023/03/28 01:25:09;;;;;;;7.28;2.60;;;;;;;4.81;77.41;100360.56;1894205;76;21513;-47
2023/03/28 01:27:44;;;;;;;5.28;2.65;;;;;;;4.82;77.45;100357.08;1894259;76;21074;-46
2023/03/28 01:30:26;;;;;;;8.68;3.67;;;;;;;4.85;77.44;100349.20;1891939;76;21144;-45
2023/03/28 01:33:17;;;;;;;7.53;3.52;;;;;;;4.87;77.50;100344.80;1886930;75;21135;-48
2023/03/28 01:36:11;;;;;;;10.85;3.70;;;;;;;4.89;77.46;100336.91;1893881;76;21035;-46
2023/03/28 01:38:54;;;;;;;7.35;2.42;;;;;;;4.89;77.38;100336.48;1862536;77;21046;-47
2023/03/28 01:41:41;;;;;;;5.97;2.90;;;;;;;4.92;77.31;100325.11;1853385;77;21058;-44
2023/03/28 01:44:12;;;;;;;6.08;2.27;;;;;;;4.91;77.34;100316.44;1863114;76;21489;-44
2023/03/28 01:47:03;;;;;;;9.05;3.00;;;;;;;4.91;77.31;100316.89;1862134;77;21042;-44
2023/03/28 01:49:45;;;;;;;6.15;2.33;;;;;;;4.90;77.27;100317.77;1862237;77;21066;-48
2023/03/28 01:52:42;;;;;;;3.92;2.30;;;;;;;4.89;77.27;100310.83;1862179;77;21047;-45
2023/03/28 01:55:20;;;;;;;5.78;2.70;;;;;;;4.88;77.42;100309.97;1889097;76;21540;-45
2023/03/28 01:57:52;;;;;;;5.30;2.65;;;;;;;4.80;77.77;100304.94;1893046;76;21047;-47
2023/03/28 02:00:36;;;;;;;4.12;1.90;;;;;;;4.78;77.77;100301.96;1892319;76;21125;-48
2023/03/28 02:03:12;;;;;;;6.87;2.12;;;;;;;4.77;77.97;100306.30;1894279;76;21500;-48
2023/03/28 02:05:45;;;;;;;3.47;1.87;;;;;;;4.77;77.86;100298.92;1861639;76;21082;-48
2023/03/28 02:08:18;;;;;;;3.85;2.08;;;;;;;4.77;78.00;100293.71;1862166;77;21168;-45
2023/03/28 02:10:51;;;;;;;5.90;2.60;;;;;;;4.77;78.20;100285.88;1862162;76;21172;-47
2023/03/28 02:13:30;;;;;;;6.40;2.40;;;;;;;4.80;78.45;100281.45;1862346;77;21083;-46
2023/03/28 02:16:02;;;;;;;4.83;2.40;;;;;;;4.82;78.79;100274.45;1887125;76;21054;-45
2023/03/28 02:18:52;;;;;;;6.72;2.92;;;;;;;4.87;78.97;100265.23;1894156;76;21057;-44
2023/03/28 02:21:42;;;;;;;4.87;2.47;;;;;;;4.91;79.05;100252.98;1837958;76;21081;-45
2023/03/28 02:24:25;;;;;;;7.95;2.83;;;;;;;4.94;79.04;100256.38;1892573;74;21531;-47
2023/03/28 02:26:56;;;;;;;4.87;2.65;;;;;;;4.98;79.15;100258.01;1893110;76;21623;-45
2023/03/28 02:29:46;;;;;;;4.92;2.15;;;;;;;5.01;79.24;100252.69;1892587;76;21139;-45
2023/03/28 02:32:20;;;;;;;8.15;3.00;;;;;;;5.03;79.03;100249.63;1894091;74;21061;-50
2023/03/28 02:34:51;;;;;;;6.83;2.42;;;;;;;5.06;78.90;100247.84;1894148;76;21148;-50
2023/03/28 02:37:25;;;;;;;4.20;1.87;;;;;;;5.10;78.96;100250.77;1872969;76;21042;-46
2023/03/28 02:40:10;;;;;;;6.17;2.58;;;;;;;5.14;78.96;100258.94;1862241;77;21117;-46
2023/03/28 02:43:01;;;;;;;5.00;2.37;;;;;;;5.17;78.91;100249.73;1864269;76;21583;-44
2023/03/28 02:45:38;;;;;;;3.40;2.45;;;;;;;5.23;79.13;100244.35;1845730;77;21509;-45
2023/03/28 02:48:14;;;;;;;6.10;2.20;;;;;;;5.29;79.26;100245.49;1862237;76;21582;-47
2023/03/28 02:50:58;;;;;;;5.35;1.67;;;;;;;5.30;79.24;100242.00;1862004;77;21505;-45
2023/03/28 02:53:44;;;;;;;;;;;;;;;5.33;79.37;100241.94;1901859;74;21034;-45
2023/03/28 02:56:23;;;;;;;3.75;2.22;;;;;;;5.37;79.50;100231.81;1926883;74;20138;-46
2023/03/28 02:59:15;;;;;;;2.83;1.20;;;;;;;5.40;80.23;100226.95;1917730;74;21082;-44
2023/03/28 03:01:44;;;;;;;3.47;2.17;;;;;;;5.43;80.59;100222.96;1913143;74;21121;-46
2023/03/28 03:04:16;;;;;;;13.15;2.42;;;;;;;5.48;80.73;100216.30;1901240;74;21510;-46
2023/03/28 03:06:49;;;;;;;3.98;2.12;;;;;;;5.54;80.84;100210.94;1894057;76;21046;-47
2023/03/28 03:09:14;;;;;;;3.40;1.60;;;;;;;5.56;80.80;100203.45;1892495;75;21038;-45
2023/03/28 03:11:43;;;;;;;4.00;1.87;;;;;;;5.60;80.92;100202.92;1894461;76;21527;-45
2023/03/28 03:14:12;;;;;;;3.80;1.35;;;;;;;5.62;80.95;100199.81;1879584;76;21022;-45
2023/03/28 03:16:41;;;;;;;2.95;1.70;;;;;;;5.64;80.99;100199.78;1862378;77;21493;-46
2023/03/28 03:19:10;;;;;;;8.65;2.58;;;;;;;5.63;81.04;100200.23;1862164;77;21445;-46
2023/03/28 03:21:40;;;;;;;2.72;1.42;;;;;;;5.60;81.13;100197.70;1862126;77;21112;-46
2023/03/28 03:24:09;;;;;;;5.10;1.50;;;;;;;5.57;81.23;100193.42;1864222;76;21473;-46
2023/03/28 03:26:39;;;;;;;5.22;1.05;;;;;;;5.55;81.33;100191.73;1861879;77;21106;-46
2023/03/28 03:29:08;;;;;;;6.50;2.85;;;;;;;5.52;81.72;100190.08;1862367;77;21571;-46
2023/03/28 03:31:37;;;;;;;4.58;1.92;;;;;;;5.50;81.96;100196.25;1862308;77;21533;-46
2023/03/28 03:34:26;;;;;;;5.37;2.22;;;;;;;5.49;82.08;100203.66;1862566;76;21157;-45
2023/03/28 03:36:56;;;;;;;3.17;1.55;;;;;;;5.50;82.28;100200.17;1863213;76;21121;-45
2023/03/28 03:39:25;;;;;;;4.00;2.20;;;;;;;5.53;82.38;100196.14;1875487;76;21031;-45
2023/03/28 03:41:53;;;;;;;1.82;1.52;;;;;;;5.54;82.50;100200.48;1875671;76;21571;-46
2023/03/28 03:44:22;;;;;;;5.60;2.20;;;;;;;5.58;82.55;100190.36;1875496;76;21120;-46
2023/03/28 03:46:53;;;;;;;3.25;1.82;;;;;;;5.65;82.59;100187.14;1871811;76;21557;-47
2023/03/28 03:49:21;;;;;;;2.22;1.65;;;;;;;5.71;82.51;100182.58;1875432;76;21137;-46
2023/03/28 03:51:50;;;;;;;1.90;1.15;;;;;;;5.78;82.47;100174.98;1874996;75;21489;-46
2023/03/28 03:54:19;;;;;;;6.80;3.55;;;;;;;5.84;82.43;100166.11;1875400;76;21047;-47
2023/03/28 03:56:48;;;;;;;4.80;2.22;;;;;;;5.93;82.35;100167.61;1875431;76;21551;-45
2023/03/28 03:59:18;;;;;;;7.97;2.00;;;;;;;6.02;82.24;100167.84;1875629;76;21442;-47
2023/03/28 04:01:47;;;;;;;1.62;1.37;;;;;;;6.12;82.03;100166.64;1873255;76;21137;-42
2023/03/28 04:04:17;;;;;;;2.42;1.50;;;;;;;6.22;81.81;100164.63;1872556;76;21525;-45
2023/03/28 04:06:50;;;;;;;7.37;2.40;;;;;;;6.31;81.57;100155.20;1873404;76;21067;-43
2023/03/28 04:09:21;;;;;;;4.83;2.90;;;;;;;6.42;81.43;100152.23;1875569;76;21160;-44
2023/03/28 04:11:55;;;;;;;6.80;2.42;;;;;;;6.51;81.17;100146.28;1875804;75;21082;-44
2023/03/28 04:14:24;;;;;;;3.90;2.22;;;;;;;6.66;80.96;100148.85;1885375;75;21531;-44
2023/03/28 04:16:56;;;;;;;4.87;2.75;;;;;;;6.76;80.72;100150.70;1882973;75;21169;-48
2023/03/28 04:19:26;;;;;;;6.78;2.37;;;;;;;6.82;80.45;100149.19;1907864;75;21585;-45
2023/03/28 04:21:56;;;;;;;3.15;1.82;;;;;;;6.86;80.27;100149.52;1882725;75;21044;-49
2023/03/28 04:24:24;;;;;;;5.25;3.08;;;;;;;6.99;80.12;100147.34;1889798;75;21068;-44
2023/03/28 04:26:57;;;;;;;3.92;2.10;;;;;;;7.14;79.98;100136.80;1905285;75;21136;-42
2023/03/28 04:29:32;;;;;;;4.50;2.62;;;;;;;7.22;79.75;100134.76;1894699;75;21128;-44
2023/03/28 04:32:05;;;;;;;4.60;2.33;;;;;;;7.32;79.48;100124.38;1877913;75;21600;-44
2023/03/28 04:34:38;;;;;;;6.58;2.87;;;;;;;7.42;79.14;100124.05;1864467;75;21082;-46
2023/03/28 04:37:09;;;;;;;8.53;4.28;;;;;;;7.50;78.96;100128.55;1919301;74;21085;-47
2023/03/28 04:39:40;;;;;;;10.82;3.83;;;;;;;7.66;78.83;100119.67;1889640;73;21125;-45
2023/03/28 04:42:27;;;;;;;3.37;1.67;;;;;;;7.82;78.64;100112.08;1861354;76;21171;-45
2023/03/28 04:45:08;;;;;;;9.00;4.12;;;;;;;8.02;78.36;100110.89;1868066;76;21098;-47
2023/03/28 04:47:38;;;;;;;9.00;3.50;;;;;;;8.32;78.38;100098.80;1894332;76;21208;-46
2023/03/28 04:50:11;;;;;;;8.98;4.00;;;;;;;8.64;78.22;100099.28;1894201;76;21109;-45
2023/03/28 04:52:40;;;;;;;;;;;;;;;8.79;77.77;100105.20;1897055;76;21116;-45
2023/03/28 04:55:09;;;;;;;6.92;2.77;;;;;;;9.06;77.87;100120.72;1894159;76;20116;-45
2023/03/28 04:57:39;;;;;;;10.82;3.00;;;;;;;9.45;77.72;100109.40;1888343;76;21091;-46
2023/03/28 05:00:11;;;;;;;6.78;2.45;;;;;;;9.72;77.38;100110.38;1859686;76;21461;-45
2023/03/28 05:02:59;;;;;;;9.88;2.70;;;;;;;9.89;76.46;100113.11;1876978;76;21481;-45
2023/03/28 05:05:30;;;;;;;5.60;2.65;;;;;;;10.13;75.91;100091.84;1876844;76;21054;-45
2023/03/28 05:07:59;;;;;;;4.40;2.75;;;;;;;10.40;75.40;100088.36;1859581;76;21810;-47
2023/03/28 05:10:28;;;;;;;3.83;2.10;;;;;;;10.81;75.07;100084.16;1876882;76;21567;-45
2023/03/28 05:12:58;;;;;;;1.67;1.45;;;;;;;10.86;73.50;100083.91;1876167;76;21119;-45
2023/03/28 05:15:27;;;;;;;5.92;2.30;;;;;;;10.66;72.16;100077.88;1859667;77;21270;-45
2023/03/28 05:17:58;;;;;;;3.30;2.08;;;;;;;10.60;70.40;100075.09;1875090;76;21131;-44
2023/03/28 05:20:29;;;;;;;5.90;2.00;;;;;;;10.52;69.94;100075.08;1860138;75;21572;-44
2023/03/28 05:22:58;;;;;;;3.85;1.57;;;;;;;10.42;69.91;100083.43;1876849;76;21502;-45
2023/03/28 05:25:28;;;;;;;3.47;2.33;;;;;;;10.43;70.12;100079.85;1852497;76;21570;-45
2023/03/28 05:27:57;;;;;;;4.90;1.32;;;;;;;10.53;68.91;100074.14;1859658;77;21121;-45
2023/03/28 05:30:26;;;;;;;4.17;1.92;;;;;;;10.56;68.52;100072.67;1876969;76;21128;-46
2023/03/28 05:32:57;;;;;;;5.30;2.12;;;;;;;10.56;68.20;100072.67;1859607;77;21129;-45
2023/03/28 05:35:26;;;;;;;6.17;2.90;;;;;;;10.56;68.36;100064.30;1891988;76;21026;-45
2023/03/28 05:37:54;;;;;;;5.03;2.60;;;;;;;10.58;68.29;100060.28;1877302;76;21055;-44
2023/03/28 05:40:23;;;;;;;10.00;3.37;;;;;;;10.69;68.20;100063.70;1875374;76;21572;-46
2023/03/28 05:42:52;;;;;;;8.25;2.25;;;;;;;11.00;68.48;100048.51;1875467;76;21055;-45
2023/03/28 05:45:21;;;;;;;2.90;1.82;;;;;;;11.33;68.70;100051.63;1875308;76;21561;-46
2023/03/28 05:48:10;;;;;;;7.30;2.20;;;;;;;11.49;68.55;100047.24;1874995;76;21625;-46
2023/03/28 05:50:39;;;;;;;3.85;1.77;;;;;;;11.47;67.99;100047.80;1875400;76;21031;-46
2023/03/28 05:53:07;;;;;;;4.85;1.70;;;;;;;11.51;67.62;100046.69;1875549;76;21098;-45
2023/03/28 05:55:36;;;;;;;7.03;2.08;;;;;;;11.56;67.03;100047.30;1875256;76;21075;-46
2023/03/28 05:58:06;;;;;;;8.50;2.90;;;;;;;11.87;67.38;100035.05;1875503;76;21113;-45
2023/03/28 06:00:37;;;;;;;6.58;1.87;;;;;;;12.10;67.35;100036.91;1874377;75;21163;-46
2023/03/28 06:03:06;;;;;;;5.42;2.30;;;;;;;12.61;67.37;100032.66;1875575;76;21528;-48
2023/03/28 06:05:37;;;;;;;5.83;2.25;;;;;;;13.44;67.08;100035.12;1874215;76;21165;-46
2023/03/28 06:08:08;;;;;;;7.03;2.08;;;;;;;13.70;66.23;100030.87;1874835;76;21105;-47
2023/03/28 06:10:36;;;;;;;14.65;2.50;;;;;;;13.56;65.21;100037.98;1875497;76;21098;-46
2023/03/28 06:13:23;;;;;;;14.65;2.75;;;;;;;13.37;64.79;100035.16;1875328;76;21071;-44
2023/03/28 06:15:52;;;;;;;16.90;2.67;;;;;;;13.33;64.75;100040.23;1875290;76;21148;-44
2023/03/28 06:18:22;;;;;;;17.82;3.95;;;;;;;13.42;64.66;100030.41;1874530;76;21177;-45
2023/03/28 06:20:51;;;;;;;18.45;6.03;;;;;;;13.31;64.46;100037.69;1875493;76;21207;-44
2023/03/28 06:23:21;;;;;;;23.57;7.53;;;;;;;13.32;64.45;100043.84;1875339;76;21051;-44
2023/03/28 06:25:50;;;;;;;26.40;9.13;;;;;;;13.69;64.69;100032.29;1875515;76;21562;-44
2023/03/28 06:28:19;;;;;;;23.02;7.55;;;;;;;13.96;64.63;100031.46;1875547;76;21141;-45
2023/03/28 06:31:05;;;;;;;17.25;6.95;;;;;;;13.84;64.17;100026.50;1819900;79;21076;-45
2023/03/28 06:33:33;;;;;;;22.32;7.30;;;;;;;13.74;63.95;100026.24;1855834;76;21042;-44
2023/03/28 06:36:02;;;;;;;21.20;8.00;;;;;;;13.55;63.44;100012.47;1855812;77;21058;-45
2023/03/28 06:38:33;;;;;;;21.25;7.53;;;;;;;13.46;63.62;100016.53;1874012;73;21068;-44
2023/03/28 06:41:01;;;;;;;20.80;7.92;;;;;;;13.46;63.60;100014.76;1859802;77;21582;-45
2023/03/28 06:43:30;;;;;;;12.65;4.92;;;;;;;13.49;63.37;100007.94;1876992;76;21057;-44
2023/03/28 06:46:07;;;;;;;7.75;3.58;;;;;;;13.55;63.27;100007.17;1876365;75;21073;-47
2023/03/28 06:48:38;;;;;;;9.58;3.80;;;;;;;13.73;63.21;100004.69;1901404;75;21124;-45
2023/03/28 06:51:20;;;;;;;20.27;8.37;;;;;;;13.71;62.50;100001.30;1872971;76;21426;-44
2023/03/28 06:53:49;;;;;;;6.90;2.62;;;;;;;13.73;62.50;99990.13;1877096;76;21045;-46
2023/03/28 06:56:19;;;;;;;9.93;1.87;;;;;;;13.90;62.31;99990.36;1860289;75;21073;-46
2023/03/28 06:58:48;;;;;;;14.07;2.30;;;;;;;14.01;61.40;99980.41;1877115;76;21119;-44
2023/03/28 07:01:17;;;;;;;11.15;2.08;;;;;;;13.99;60.93;99972.56;1877024;76;21597;-45
2023/03/28 07:03:58;;;;;;;11.38;1.98;;;;;;;14.03;61.12;99970.56;1861054;75;21054;-46
2023/03/28 07:06:27;;;;;;;10.23;1.80;;;;;;;14.05;60.91;99971.30;1876928;76;21043;-46
2023/03/28 07:08:58;;;;;;;10.08;2.52;;;;;;;14.14;61.08;99964.08;1876978;76;21076;-46
2023/03/28 07:11:28;;;;;;;6.90;1.65;;;;;;;14.24;60.76;99966.50;1862217;75;21081;-46
2023/03/28 07:13:57;;;;;;;5.45;2.05;;;;;;;14.36;60.73;99970.61;1876997;76;21043;-46
2023/03/28 07:16:26;;;;;;;4.67;1.70;;;;;;;14.47;60.12;99964.11;1876964;76;21520;-46
2023/03/28 07:18:54;;;;;;;12.43;1.75;;;;;;;14.66;59.47;99955.32;1859831;76;21160;-46
2023/03/28 07:21:25;;;;;;;5.28;1.35;;;;;;;15.14;58.98;99961.75;1876326;76;21165;-45
2023/03/28 07:23:55;;;;;;;8.75;2.15;;;;;;;15.35;58.00;99951.44;1876665;76;21021;-44
2023/03/28 07:26:26;;;;;;;12.10;2.50;;;;;;;15.76;57.36;99951.12;1860246;75;21073;-46
2023/03/28 07:28:58;;;;;;;10.20;3.37;;;;;;;16.07;57.25;99942.22;1876995;76;21558;-45
2023/03/28 07:31:27;;;;;;;7.87;2.67;;;;;;;16.26;57.04;99943.49;1876991;76;21509;-44
2023/03/28 07:33:57;;;;;;;7.50;2.02;;;;;;;16.75;56.09;99931.77;1868223;75;21071;-45
2023/03/28 07:36:28;;;;;;;3.25;1.40;;;;;;;17.29;54.59;99937.71;1880019;76;21139;-46
2023/03/28 07:38:58;;;;;;;4.45;1.30;;;;;;;18.21;53.85;99925.86;1866207;76;21120;-45
2023/03/28 07:41:26;;;;;;;3.45;1.45;;;;;;;18.52;53.21;99908.95;1861863;76;21126;-46
2023/03/28 07:43:55;;;;;;;3.83;1.72;;;;;;;18.94;52.21;99912.55;1861868;77;21064;-46
2023/03/28 07:46:26;;;;;;;3.52;1.60;;;;;;;19.31;51.89;99901.30;1861797;77;21080;-45
2023/03/28 07:48:55;;;;;;;4.40;1.40;;;;;;;19.04;52.08;99901.45;1861875;77;21150;-46
2023/03/28 07:51:24;;;;;;;9.63;2.72;;;;;;;18.67;50.94;99900.63;1861871;76;21075;-46
2023/03/28 07:53:52;;;;;;;4.33;1.12;;;;;;;18.42;50.59;99903.20;1861844;77;21048;-45
2023/03/28 07:56:21;;;;;;;5.80;0.80;;;;;;;18.24;47.84;99888.28;1861977;77;21113;-44
2023/03/28 07:58:57;;;;;;;6.53;1.52;;;;;;;18.26;39.46;99883.20;1828312;76;21240;-45
2023/03/28 08:01:26;;;;;;;2.67;0.88;;;;;;;18.45;36.33;99868.30;1861975;77;21119;-45
2023/03/28 08:03:56;;;;;;;2.95;0.65;;;;;;;18.39;32.17;99873.67;1861440;75;21108;-45
2023/03/28 08:06:27;;;;;;;5.30;0.75;;;;;;;18.37;32.21;99852.97;1861427;77;21181;-46
2023/03/28 08:08:55;;;;;;;3.98;1.10;;;;;;;18.46;32.85;99856.18;1861968;77;21044;-45
2023/03/28 08:11:31;;;;;;;3.27;0.80;;;;;;;18.47;30.25;99843.19;1861393;76;21585;-47
2023/03/28 08:13:56;;;;;;;1.55;0.95;;;;;;;18.80;31.05;99840.40;1860519;76;21053;-45
2023/03/28 08:16:24;;;;;;;9.63;1.00;;;;;;;19.01;28.81;99853.69;1861928;77;21071;-45
2023/03/28 08:18:53;;;;;;;2.50;0.70;;;;;;;19.35;29.78;99833.31;1861879;77;21488;-45
2023/03/28 08:21:24;;;;;;;1.65;0.90;;;;;;;19.77;29.15;99853.12;1861836;76;21511;-46
2023/03/28 08:23:53;;;;;;;5.20;1.00;;;;;;;20.11;27.88;99842.84;1861741;76;21678;-45
2023/03/28 08:26:30;;;;;;;1.55;0.68;;;;;;;19.85;27.43;99845.27;1850211;77;21162;-45
2023/03/28 08:28:59;;;;;;;1.72;0.80;;;;;;;20.39;28.20;99835.73;1861930;77;21495;-45
2023/03/28 08:31:29;;;;;;;1.95;0.90;;;;;;;20.90;26.72;99830.09;1861843;77;21075;-45
2023/03/28 08:33:59;;;;;;;3.92;1.25;;;;;;;20.96;26.59;99821.45;1861283;76;21147;-45
2023/03/28 08:36:30;;;;;;;0.93;0.72;;;;;;;21.06;27.15;99816.88;1861136;75;21186;-46
2023/03/28 08:39:03;;;;;;;2.83;0.90;;;;;;;21.48;26.66;99810.15;1860541;77;21538;-46
2023/03/28 08:41:39;;;;;;;;;;;;;;;21.38;26.94;99796.81;1869765;77;21075;-44
2023/03/28 08:44:33;;;;;;;4.53;0.80;;;;;;;21.86;27.16;99813.00;1866723;76;20108;-45
2023/03/28 08:47:08;;;;;;;7.50;2.85;;;;;;;21.95;27.87;99802.68;1867023;76;21071;-45
2023/03/28 08:49:39;;;;;;;2.67;1.85;;;;;;;21.84;26.46;99849.83;1866262;76;21072;-43
2023/03/28 08:52:10;;;;;;;6.08;1.27;;;;;;;21.45;26.65;99803.75;1866678;76;21616;-45
2023/03/28 08:54:57;;;;;;;13.32;3.00;;;;;;;21.20;26.26;99802.98;1867196;76;21541;-44
2023/03/28 08:57:29;;;;;;;3.05;1.42;;;;;;;20.64;26.66;99778.61;1866933;77;21119;-45
2023/03/28 09:00:23;;;;;;;2.95;1.45;;;;;;;20.33;27.26;99769.48;1865181;76;21040;-45
2023/03/28 09:02:52;;;;;;;2.65;1.50;;;;;;;20.21;28.14;99789.35;1866924;77;21056;-45
2023/03/28 09:05:35;;;;;;;4.45;1.62;;;;;;;19.92;28.01;99774.25;1866924;77;21058;-47
2023/03/28 09:08:20;;;;;;;2.58;1.40;;;;;;;19.92;28.46;99791.62;1853665;76;21502;-45
2023/03/28 09:11:05;;;;;;;3.00;1.10;;;;;;;19.95;28.32;99768.60;1866824;75;21130;-46
2023/03/28 09:14:01;;;;;;;2.77;1.30;;;;;;;20.46;28.08;99750.94;1866560;76;21048;-48
2023/03/28 09:16:35;;;;;;;1.70;0.95;;;;;;;21.55;26.64;99761.16;1866946;76;21173;-46
2023/03/28 09:19:39;;;;;;;4.55;1.00;;;;;;;21.77;27.23;99746.94;1866795;76;21103;-45
2023/03/28 09:22:21;;;;;;;2.05;0.93;;;;;;;21.30;26.97;99743.17;1863864;76;21122;-45
2023/03/28 09:25:06;;;;;;;3.98;1.40;;;;;;;20.99;26.55;99736.88;1866319;76;21530;-44
2023/03/28 09:27:56;;;;;;;4.67;2.10;;;;;;;20.64;27.23;99763.91;1866816;76;21048;-44
2023/03/28 09:30:31;;;;;;;11.83;1.45;;;;;;;21.10;26.54;99742.00;1861042;76;21048;-46
2023/03/28 09:33:02;;;;;;;3.08;1.27;;;;;;;21.01;26.78;99747.76;1834928;77;21081;-46
2023/03/28 09:35:33;;;;;;;3.22;1.45;;;;;;;20.79;27.37;99749.02;1837088;77;21477;-45
2023/03/28 09:38:05;;;;;;;2.98;1.47;;;;;;;20.41;28.04;99739.34;1866844;76;21076;-46
2023/03/28 09:40:36;;;;;;;4.15;1.45;;;;;;;20.20;28.15;99730.22;1886500;76;21091;-46
2023/03/28 09:43:33;;;;;;;4.40;1.40;;;;;;;20.04;29.00;99739.67;1891446;76;21153;-45
2023/03/28 09:46:08;;;;;;;2.47;1.35;;;;;;;20.06;28.94;99740.88;1862144;75;21149;-46
2023/03/28 09:48:55;;;;;;;1.45;1.12;;;;;;;20.12;29.58;99738.11;1888410;75;21099;-45
2023/03/28 09:51:25;;;;;;;4.33;1.40;;;;;;;20.40;29.46;99768.41;1873942;75;21476;-45
2023/03/28 09:53:55;;;;;;;3.40;1.60;;;;;;;20.76;29.66;99767.20;1873828;76;21529;-46
2023/03/28 09:56:30;;;;;;;2.12;1.45;;;;;;;21.48;28.81;99766.80;1873993;76;21555;-46
2023/03/28 09:59:02;;;;;;;3.77;1.70;;;;;;;21.34;29.33;99778.00;1872665;76;21182;-46
2023/03/28 10:01:50;;;;;;;9.28;1.92;;;;;;;20.89;29.66;99794.44;1874852;75;21083;-46
2023/03/28 10:04:39;;;;;;;7.80;2.45;;;;;;;20.58;30.82;99801.88;1873933;76;21571;-46
2023/03/28 10:07:35;;;;;;;2.72;1.52;;;;;;;19.96;32.38;99842.44;1874081;75;21065;-45
2023/03/28 10:10:21;;;;;;;4.72;1.55;;;;;;;19.46;33.40;99803.34;1875330;75;21030;-44
2023/03/28 10:12:54;;;;;;;6.17;1.60;;;;;;;19.40;34.03;99837.75;1874431;75;21065;-44
2023/03/28 10:15:41;;;;;;;3.77;1.55;;;;;;;19.52;34.42;99833.98;1873945;75;21035;-47
2023/03/28 10:18:22;;;;;;;2.95;1.85;;;;;;;19.91;34.71;99829.16;1873775;75;21191;-45
2023/03/28 10:20:53;;;;;;;3.50;1.60;;;;;;;20.48;34.29;99826.00;1858476;75;21633;-46
2023/03/28 10:23:24;;;;;;;4.05;1.80;;;;;;;20.75;34.28;99778.41;1873953;76;21563;-44
2023/03/28 10:25:55;;;;;;;3.53;1.73;;;;;;;21.08;34.11;99825.62;1883470;75;21071;-45
2023/03/28 10:28:33;;;;;;;3.90;1.70;;;;;;;21.09;33.31;99821.94;1909605;75;21519;-45
2023/03/28 10:31:04;;;;;;;4.75;1.20;;;;;;;21.08;32.98;99828.77;1905671;75;21177;-45
2023/03/28 10:33:37;;;;;;;2.57;1.10;;;;;;;20.92;33.24;99817.40;1906283;75;21456;-45
2023/03/28 10:36:11;;;;;;;5.67;1.50;;;;;;;20.69;33.88;99815.09;1903901;75;21460;-46
2023/03/28 10:38:47;;;;;;;4.75;1.87;;;;;;;20.60;34.55;99816.84;1905819;75;21510;-45
2023/03/28 10:41:25;;;;;;;7.28;2.05;;;;;;;20.61;34.93;99821.69;1908972;75;21109;-47
2023/03/28 10:44:18;;;;;;;5.10;1.37;;;;;;;20.72;35.19;99816.14;1909585;75;21097;-45
2023/03/28 10:46:52;;;;;;;9.80;1.90;;;;;;;20.25;36.16;99838.38;1907896;75;21177;-47
2023/03/28 10:49:27;;;;;;;5.78;1.85;;;;;;;19.77;37.13;99837.09;1908677;75;21084;-44
2023/03/28 10:51:58;;;;;;;7.50;2.60;;;;;;;19.56;37.97;99848.73;1909235;75;21143;-45
2023/03/28 10:54:36;;;;;;;3.30;1.60;;;;;;;19.25;39.05;99867.50;1909608;75;21468;-45
2023/03/28 10:57:09;;;;;;;6.70;1.70;;;;;;;19.14;39.52;99830.27;1908423;75;21134;-45
2023/03/28 10:59:49;;;;;;;6.17;2.00;;;;;;;19.68;39.39;99834.27;1908746;75;21108;-45
2023/03/28 11:02:39;;;;;;;5.67;1.47;;;;;;;19.86;39.20;99826.89;1909028;75;21036;-46
2023/03/28 11:05:21;;;;;;;4.22;1.50;;;;;;;19.77;39.32;99832.62;1907991;75;21081;-46
2023/03/28 11:08:20;;;;;;;8.53;2.35;;;;;;;19.53;39.74;99811.65;1909041;75;21105;-45
2023/03/28 11:11:05;;;;;;;5.35;1.85;;;;;;;19.38;40.26;99826.37;1907014;75;21596;-47
2023/03/28 11:13:44;;;;;;;2.85;1.98;;;;;;;19.47;40.58;99814.86;1908096;75;21092;-46
2023/03/28 11:16:29;;;;;;;7.60;2.08;;;;;;;19.37;40.83;99812.69;1909052;75;21064;-44
2023/03/28 11:19:20;;;;;;;8.15;1.87;;;;;;;19.18;41.54;99801.48;1903307;75;21134;-44
2023/03/28 11:22:13;;;;;;;4.85;1.82;;;;;;;18.83;41.96;99805.47;1909131;75;21226;-45
2023/03/28 11:24:54;;;;;;;4.67;1.85;;;;;;;18.47;42.86;99809.87;1900791;75;21054;-46
2023/03/28 11:27:54;;;;;;;6.65;2.10;;;;;;;18.11;43.76;99804.09;1880344;75;21146;-46
2023/03/28 11:30:35;;;;;;;4.00;1.70;;;;;;;18.06;44.23;99783.66;1861011;75;21078;-44
2023/03/28 11:33:20;;;;;;;6.08;2.65;;;;;;;18.01;44.36;99780.53;1874551;76;21533;-45
2023/03/28 11:35:56;;;;;;;7.75;2.20;;;;;;;17.86;44.75;99768.53;1875379;76;21495;-45
2023/03/28 11:38:28;;;;;;;6.75;2.83;;;;;;;17.66;45.17;99755.05;1859560;76;21038;-45
2023/03/28 11:41:05;;;;;;;7.90;3.25;;;;;;;17.52;45.73;99756.69;1876947;76;21094;-45
2023/03/28 11:43:48;;;;;;;10.40;2.15;;;;;;;17.32;46.31;99747.24;1871441;76;21429;-47
2023/03/28 11:46:22;;;;;;;8.65;3.10;;;;;;;17.24;46.41;99740.36;1877069;76;21038;-46
2023/03/28 11:48:57;;;;;;;8.33;2.72;;;;;;;17.23;46.45;99745.84;1859422;76;21155;-45
2023/03/28 11:51:44;;;;;;;6.58;2.17;;;;;;;17.21;46.70;99771.23;1875675;76;21194;-46
2023/03/28 11:54:22;;;;;;;5.67;2.58;;;;;;;17.14;46.92;99752.75;1876495;76;21046;-44
2023/03/28 11:57:00;;;;;;;5.12;2.75;;;;;;;17.10;47.11;99747.33;1861546;75;21078;-45
2023/03/28 11:59:56;;;;;;;10.28;3.45;;;;;;;17.16;47.18;99752.14;1876268;76;21082;-44
2023/03/28 12:02:30;;;;;;;4.95;2.50;;;;;;;17.17;47.34;99733.39;1877096;76;21489;-45
2023/03/28 12:05:02;;;;;;;6.22;2.90;;;;;;;17.14;47.31;99756.73;1859799;77;21070;-46
2023/03/28 12:07:37;;;;;;;9.33;3.70;;;;;;;17.07;47.42;99752.89;1844780;78;21090;-45